Time,TemperatureF,DewpointF,PressureIn,WindDirection,WindDirectionDegrees,WindSpeedMPH,WindSpeedGustMPH,Humidity,HourlyPrecipIn,Conditions,Clouds,dailyrainin,SoftwareType,DateUTC
2013-02-11 00:00:00,27.7,17.1,30.29,SSE,157,0.0,3.0,64,0.00,,,-99.99,WeatherLink 5.7,2013-02-11 05:00:00,
2013-02-11 00:01:00,27.7,17.1,30.29,SSE,157,0.0,3.0,64,0.00,,,-99.99,WeatherLink 5.7,2013-02-11 05:01:00,
2013-02-11 00:10:00,27.6,17.0,30.28,SSE,157,1.0,3.0,64,0.00,,,-99.99,WeatherLink 5.7,2013-02-11 05:10:00,
2013-02-11 00:11:00,27.6,17.0,30.28,SSE,157,1.0,3.0,64,0.00,,,-99.99,WeatherLink 5.7,2013-02-11 05:11:00,
2013-02-11 00:20:00,27.6,17.0,30.27,SSE,157,1.0,3.0,64,0.00,,,-99.99,WeatherLink 5.7,2013-02-11 05:20:00,
2013-02-11 00:21:00,27.6,17.0,30.27,SSE,157,1.0,3.0,64,0.00,,,-99.99,WeatherLink 5.7,2013-02-11 05:21:00,
2013-02-11 00:30:00,27.6,18.1,30.27,North,-999,0.0,1.0,67,0.00,,,-99.99,WeatherLink 5.7,2013-02-11 05:30:00,
2013-02-11 00:31:00,27.6,18.1,30.27,North,-999,0.0,1.0,67,0.00,,,-99.99,WeatherLink 5.7,2013-02-11 05:31:00,
2013-02-11 00:40:00,27.5,18.3,30.27,SSE,157,0.0,1.0,68,0.00,,,-99.99,WeatherLink 5.7,2013-02-11 05:40:00,
2013-02-11 00:41:00,27.5,18.3,30.27,SSE,157,0.0,1.0,68,0.00,,,-99.99,WeatherLink 5.7,2013-02-11 05:41:00,
2013-02-11 00:50:00,27.4,17.9,30.26,SSE,157,0.0,1.0,67,0.00,,,-99.99,WeatherLink 5.7,2013-02-11 05:50:00,
2013-02-11 00:51:00,27.4,17.9,30.26,SSE,157,0.0,1.0,67,0.00,,,-99.99,WeatherLink 5.7,2013-02-11 05:51:00,
2013-02-11 01:00:00,27.4,18.2,30.25,North,-999,0.0,1.0,68,0.00,,,-99.99,WeatherLink 5.7,2013-02-11 06:00:00,
2013-02-11 01:01:00,27.4,18.2,30.25,North,-999,0.0,1.0,68,0.00,,,-99.99,WeatherLink 5.7,2013-02-11 06:01:00,
2013-02-11 01:10:00,27.3,18.5,30.26,North,-999,0.0,1.0,69,0.00,,,-99.99,WeatherLink 5.7,2013-02-11 06:10:00,
2013-02-11 01:11:00,27.3,18.5,30.26,North,-999,0.0,1.0,69,0.00,,,-99.99,WeatherLink 5.7,2013-02-11 06:11:00,
2013-02-11 01:20:00,27.3,18.5,30.25,North,-999,0.0,0.0,69,0.00,,,-99.99,WeatherLink 5.7,2013-02-11 06:20:00,
2013-02-11 01:21:00,27.3,18.5,30.25,North,-999,0.0,0.0,69,0.00,,,-99.99,WeatherLink 5.7,2013-02-11 06:21:00,
2013-02-11 01:30:00,27.3,18.8,30.26,North,-999,0.0,0.0,70,0.00,,,-99.99,WeatherLink 5.7,2013-02-11 06:30:00,
2013-02-11 01:31:00,27.3,18.8,30.26,North,-999,0.0,0.0,70,0.00,,,-99.99,WeatherLink 5.7,2013-02-11 06:31:00,
2013-02-11 01:40:00,27.3,18.5,30.25,SSE,157,0.0,1.0,69,0.00,,,-99.99,WeatherLink 5.7,2013-02-11 06:40:00,
2013-02-11 01:41:00,27.3,18.5,30.25,SSE,157,0.0,1.0,69,0.00,,,-99.99,WeatherLink 5.7,2013-02-11 06:41:00,
2013-02-11 01:50:00,27.4,18.6,30.24,SSE,157,0.0,1.0,69,0.00,,,-99.99,WeatherLink 5.7,2013-02-11 06:50:00,
2013-02-11 01:51:00,27.4,18.6,30.24,SSE,157,0.0,1.0,69,0.00,,,-99.99,WeatherLink 5.7,2013-02-11 06:51:00,
2013-02-11 02:00:00,27.4,17.9,30.23,SSE,157,1.0,3.0,67,0.00,,,-99.99,WeatherLink 5.7,2013-02-11 07:00:00,
2013-02-11 02:01:00,27.4,17.9,30.23,SSE,157,1.0,3.0,67,0.00,,,-99.99,WeatherLink 5.7,2013-02-11 07:01:00,
2013-02-11 02:10:00,27.5,18.3,30.23,SSE,157,1.0,3.0,68,0.00,,,-99.99,WeatherLink 5.7,2013-02-11 07:10:00,
2013-02-11 02:11:00,27.5,18.3,30.23,SSE,157,1.0,3.0,68,0.00,,,-99.99,WeatherLink 5.7,2013-02-11 07:11:00,
2013-02-11 02:20:00,27.6,19.1,30.23,SSE,157,0.0,1.0,70,0.00,,,-99.99,WeatherLink 5.7,2013-02-11 07:20:00,
2013-02-11 02:21:00,27.6,19.1,30.23,SSE,157,0.0,1.0,70,0.00,,,-99.99,WeatherLink 5.7,2013-02-11 07:21:00,
2013-02-11 02:30:00,27.7,19.2,30.24,SSE,157,0.0,1.0,70,0.00,,,-99.99,WeatherLink 5.7,2013-02-11 07:30:00,
2013-02-11 02:31:00,27.7,19.2,30.24,SSE,157,0.0,1.0,70,0.00,,,-99.99,WeatherLink 5.7,2013-02-11 07:31:00,
2013-02-11 02:40:00,27.7,19.2,30.23,North,-999,0.0,1.0,70,0.00,,,-99.99,WeatherLink 5.7,2013-02-11 07:40:00,
2013-02-11 02:41:00,27.7,19.2,30.23,North,-999,0.0,1.0,70,0.00,,,-99.99,WeatherLink 5.7,2013-02-11 07:41:00,
2013-02-11 02:50:00,27.7,18.8,30.21,SSE,157,0.0,1.0,69,0.00,,,-99.99,WeatherLink 5.7,2013-02-11 07:50:00,
2013-02-11 02:51:00,27.7,18.8,30.21,SSE,157,0.0,1.0,69,0.00,,,-99.99,WeatherLink 5.7,2013-02-11 07:51:00,
2013-02-11 03:00:00,27.8,18.6,30.20,SSE,157,0.0,2.0,68,0.00,,,-99.99,WeatherLink 5.7,2013-02-11 08:00:00,
2013-02-11 03:01:00,27.8,18.6,30.20,SSE,157,0.0,2.0,68,0.00,,,-99.99,WeatherLink 5.7,2013-02-11 08:01:00,
2013-02-11 03:10:00,27.9,19.0,30.20,SSE,157,0.0,1.0,69,0.00,,,-99.99,WeatherLink 5.7,2013-02-11 08:10:00,
2013-02-11 03:11:00,27.9,19.0,30.20,SSE,157,0.0,1.0,69,0.00,,,-99.99,WeatherLink 5.7,2013-02-11 08:11:00,
2013-02-11 03:20:00,28.0,19.8,30.20,North,-999,0.0,0.0,71,0.00,,,-99.99,WeatherLink 5.7,2013-02-11 08:20:00,
2013-02-11 03:21:00,28.0,19.8,30.20,North,-999,0.0,0.0,71,0.00,,,-99.99,WeatherLink 5.7,2013-02-11 08:21:00,
2013-02-11 03:30:00,28.0,20.1,30.19,SSE,157,0.0,1.0,72,0.00,,,-99.99,WeatherLink 5.7,2013-02-11 08:30:00,
2013-02-11 03:31:00,28.0,20.1,30.19,SSE,157,0.0,1.0,72,0.00,,,-99.99,WeatherLink 5.7,2013-02-11 08:31:00,
2013-02-11 03:40:00,28.2,20.7,30.17,SSE,157,1.0,3.0,73,0.00,,,-99.99,WeatherLink 5.7,2013-02-11 08:40:00,
2013-02-11 03:41:00,28.2,20.7,30.17,SSE,157,1.0,3.0,73,0.00,,,-99.99,WeatherLink 5.7,2013-02-11 08:41:00,
2013-02-11 03:50:00,28.3,21.4,30.17,SSE,157,0.0,2.0,75,0.00,,,-99.99,WeatherLink 5.7,2013-02-11 08:50:00,
2013-02-11 03:51:00,28.3,21.4,30.17,SSE,157,0.0,2.0,75,0.00,,,-99.99,WeatherLink 5.7,2013-02-11 08:51:00,
2013-02-11 04:00:00,28.4,21.8,30.18,North,-999,0.0,0.0,76,0.00,,,-99.99,WeatherLink 5.7,2013-02-11 09:00:00,
2013-02-11 04:01:00,28.4,21.8,30.18,North,-999,0.0,0.0,76,0.00,,,-99.99,WeatherLink 5.7,2013-02-11 09:01:00,
2013-02-11 04:10:00,28.4,21.8,30.16,North,-999,0.0,0.0,76,0.00,,,-99.99,WeatherLink 5.7,2013-02-11 09:10:00,
2013-02-11 04:11:00,28.4,21.8,30.16,North,-999,0.0,0.0,76,0.00,,,-99.99,WeatherLink 5.7,2013-02-11 09:11:00,
2013-02-11 04:20:00,28.6,22.3,30.16,SSE,157,0.0,2.0,77,0.00,,,-99.99,WeatherLink 5.7,2013-02-11 09:20:00,
2013-02-11 04:21:00,28.6,22.3,30.16,SSE,157,0.0,2.0,77,0.00,,,-99.99,WeatherLink 5.7,2013-02-11 09:21:00,
2013-02-11 04:30:00,28.7,22.7,30.15,SSE,157,0.0,1.0,78,0.00,,,-99.99,WeatherLink 5.7,2013-02-11 09:30:00,
2013-02-11 04:31:00,28.7,22.7,30.15,SSE,157,0.0,1.0,78,0.00,,,-99.99,WeatherLink 5.7,2013-02-11 09:31:00,
2013-02-11 04:40:00,28.9,23.2,30.14,North,-999,0.0,0.0,79,0.00,,,-99.99,WeatherLink 5.7,2013-02-11 09:40:00,
2013-02-11 04:41:00,28.9,23.2,30.14,North,-999,0.0,0.0,79,0.00,,,-99.99,WeatherLink 5.7,2013-02-11 09:41:00,
2013-02-11 04:50:00,29.3,23.6,30.13,North,-999,0.0,1.0,79,0.00,,,-99.99,WeatherLink 5.7,2013-02-11 09:50:00,
2013-02-11 04:51:00,29.3,23.6,30.13,North,-999,0.0,1.0,79,0.00,,,-99.99,WeatherLink 5.7,2013-02-11 09:51:00,
2013-02-11 05:00:00,29.6,24.5,30.14,SSE,157,0.0,1.0,81,0.00,,,-99.99,WeatherLink 5.7,2013-02-11 10:00:00,
2013-02-11 05:01:00,29.6,24.5,30.14,SSE,157,0.0,1.0,81,0.00,,,-99.99,WeatherLink 5.7,2013-02-11 10:01:00,
2013-02-11 05:10:00,29.9,25.1,30.13,SSE,157,0.0,2.0,82,0.00,,,-99.99,WeatherLink 5.7,2013-02-11 10:10:00,
2013-02-11 05:11:00,29.9,25.1,30.13,SSE,157,0.0,2.0,82,0.00,,,-99.99,WeatherLink 5.7,2013-02-11 10:11:00,
2013-02-11 05:20:00,30.2,25.7,30.13,SSE,157,0.0,1.0,83,0.00,,,-99.99,WeatherLink 5.7,2013-02-11 10:20:00,
2013-02-11 05:21:00,30.2,25.7,30.13,SSE,157,0.0,1.0,83,0.00,,,-99.99,WeatherLink 5.7,2013-02-11 10:21:00,
2013-02-11 05:30:00,30.4,25.9,30.12,SSE,157,1.0,2.0,83,0.00,,,-99.99,WeatherLink 5.7,2013-02-11 10:30:00,
2013-02-11 05:31:00,30.4,25.9,30.12,SSE,157,1.0,2.0,83,0.00,,,-99.99,WeatherLink 5.7,2013-02-11 10:31:00,
2013-02-11 05:40:00,30.5,26.2,30.12,SSE,157,1.0,2.0,84,0.00,,,-99.99,WeatherLink 5.7,2013-02-11 10:40:00,
2013-02-11 05:41:00,30.5,26.2,30.12,SSE,157,1.0,2.0,84,0.00,,,-99.99,WeatherLink 5.7,2013-02-11 10:41:00,
2013-02-11 05:50:00,30.5,26.5,30.12,SSE,157,0.0,2.0,85,0.01,,,-99.99,WeatherLink 5.7,2013-02-11 10:50:00,
2013-02-11 05:51:00,30.5,26.5,30.12,SSE,157,0.0,2.0,85,0.01,,,-99.99,WeatherLink 5.7,2013-02-11 10:51:00,
2013-02-11 06:00:00,30.8,26.8,30.11,SSE,157,1.0,3.0,85,0.01,,,-99.99,WeatherLink 5.7,2013-02-11 11:00:00,
2013-02-11 06:01:00,30.8,26.8,30.11,SSE,157,1.0,3.0,85,0.01,,,-99.99,WeatherLink 5.7,2013-02-11 11:01:00,
2013-02-11 06:10:00,31.0,27.3,30.10,SSE,157,1.0,3.0,86,0.02,,,-99.99,WeatherLink 5.7,2013-02-11 11:10:00,
2013-02-11 06:11:00,31.0,27.3,30.10,SSE,157,1.0,3.0,86,0.02,,,-99.99,WeatherLink 5.7,2013-02-11 11:11:00,
2013-02-11 06:20:00,31.1,27.4,30.09,SE,135,1.0,3.0,86,0.02,,,-99.99,WeatherLink 5.7,2013-02-11 11:20:00,
2013-02-11 06:21:00,31.1,27.4,30.09,SE,135,1.0,3.0,86,0.02,,,-99.99,WeatherLink 5.7,2013-02-11 11:21:00,
2013-02-11 06:30:00,31.2,27.8,30.08,SE,135,1.0,3.0,87,0.02,,,-99.99,WeatherLink 5.7,2013-02-11 11:30:00,
2013-02-11 06:31:00,31.2,27.8,30.08,SE,135,1.0,3.0,87,0.02,,,-99.99,WeatherLink 5.7,2013-02-11 11:31:00,
2013-02-11 06:40:00,31.3,27.9,30.07,SE,135,2.0,3.0,87,0.03,,,-99.99,WeatherLink 5.7,2013-02-11 11:40:00,
2013-02-11 06:41:00,31.3,27.9,30.07,SE,135,2.0,3.0,87,0.03,,,-99.99,WeatherLink 5.7,2013-02-11 11:41:00,
2013-02-11 06:50:00,31.4,28.3,30.07,SE,135,1.0,3.0,88,0.02,,,-99.99,WeatherLink 5.7,2013-02-11 11:50:00,
2013-02-11 06:51:00,31.4,28.3,30.07,SE,135,1.0,3.0,88,0.02,,,-99.99,WeatherLink 5.7,2013-02-11 11:51:00,
2013-02-11 07:00:00,31.6,28.5,30.06,SE,135,2.0,3.0,88,0.04,,,-99.99,WeatherLink 5.7,2013-02-11 12:00:00,
2013-02-11 07:01:00,31.6,28.5,30.06,SE,135,2.0,3.0,88,0.04,,,-99.99,WeatherLink 5.7,2013-02-11 12:01:00,
2013-02-11 07:10:00,31.9,29.0,30.05,SE,135,0.0,1.0,89,0.06,,,-99.99,WeatherLink 5.7,2013-02-11 12:10:00,
2013-02-11 07:11:00,31.9,29.0,30.05,SE,135,0.0,1.0,89,0.06,,,-99.99,WeatherLink 5.7,2013-02-11 12:11:00,
2013-02-11 07:20:00,32.1,29.2,30.05,North,-999,0.0,0.0,89,0.09,,,-99.99,WeatherLink 5.7,2013-02-11 12:20:00,
2013-02-11 07:21:00,32.1,29.2,30.05,North,-999,0.0,0.0,89,0.09,,,-99.99,WeatherLink 5.7,2013-02-11 12:21:00,
2013-02-11 07:30:00,32.2,29.3,30.05,North,-999,0.0,0.0,89,0.12,,,-99.99,WeatherLink 5.7,2013-02-11 12:30:00,
2013-02-11 07:31:00,32.2,29.3,30.05,North,-999,0.0,0.0,89,0.12,,,-99.99,WeatherLink 5.7,2013-02-11 12:31:00,
2013-02-11 07:40:00,32.4,29.5,30.03,North,-999,0.0,0.0,89,0.14,,,-99.99,WeatherLink 5.7,2013-02-11 12:40:00,
2013-02-11 07:41:00,32.4,29.5,30.03,North,-999,0.0,0.0,89,0.14,,,-99.99,WeatherLink 5.7,2013-02-11 12:41:00,
2013-02-11 07:50:00,32.5,29.6,30.03,SE,135,0.0,1.0,89,0.16,,,-99.99,WeatherLink 5.7,2013-02-11 12:50:00,
2013-02-11 07:51:00,32.5,29.6,30.03,SE,135,0.0,1.0,89,0.16,,,-99.99,WeatherLink 5.7,2013-02-11 12:51:00,
2013-02-11 08:00:00,32.6,29.7,30.03,North,-999,0.0,0.0,89,0.16,,,-99.99,WeatherLink 5.7,2013-02-11 13:00:00,
2013-02-11 08:01:00,32.6,29.7,30.03,North,-999,0.0,0.0,89,0.16,,,-99.99,WeatherLink 5.7,2013-02-11 13:01:00,
2013-02-11 08:10:00,32.6,29.7,30.03,North,-999,0.0,0.0,89,0.14,,,-99.99,WeatherLink 5.7,2013-02-11 13:10:00,
2013-02-11 08:11:00,32.6,29.7,30.03,North,-999,0.0,0.0,89,0.14,,,-99.99,WeatherLink 5.7,2013-02-11 13:11:00,
2013-02-11 08:20:00,32.7,29.8,30.03,North,-999,0.0,0.0,89,0.13,,,-99.99,WeatherLink 5.7,2013-02-11 13:20:00,
2013-02-11 08:21:00,32.7,29.8,30.03,North,-999,0.0,0.0,89,0.13,,,-99.99,WeatherLink 5.7,2013-02-11 13:21:00,
2013-02-11 08:30:00,32.8,29.9,30.02,SE,135,0.0,1.0,89,0.11,,,-99.99,WeatherLink 5.7,2013-02-11 13:30:00,
2013-02-11 08:31:00,32.8,29.9,30.02,SE,135,0.0,1.0,89,0.11,,,-99.99,WeatherLink 5.7,2013-02-11 13:31:00,
2013-02-11 08:40:00,32.9,30.0,30.02,North,-999,0.0,0.0,89,0.09,,,-99.99,WeatherLink 5.7,2013-02-11 13:40:00,
2013-02-11 08:41:00,32.9,30.0,30.02,North,-999,0.0,0.0,89,0.09,,,-99.99,WeatherLink 5.7,2013-02-11 13:41:00,
2013-02-11 08:50:00,33.0,30.1,30.01,North,-999,0.0,0.0,89,0.08,,,-99.99,WeatherLink 5.7,2013-02-11 13:50:00,
2013-02-11 08:51:00,33.0,30.1,30.01,North,-999,0.0,0.0,89,0.08,,,-99.99,WeatherLink 5.7,2013-02-11 13:51:00,
2013-02-11 09:00:00,33.2,30.3,30.00,North,-999,0.0,0.0,89,0.07,,,-99.99,WeatherLink 5.7,2013-02-11 14:00:00,
2013-02-11 09:01:00,33.2,30.3,30.00,North,-999,0.0,0.0,89,0.07,,,-99.99,WeatherLink 5.7,2013-02-11 14:01:00,
2013-02-11 09:10:00,33.4,30.5,30.00,North,-999,0.0,0.0,89,0.07,,,-99.99,WeatherLink 5.7,2013-02-11 14:10:00,
2013-02-11 09:11:00,33.4,30.5,30.00,North,-999,0.0,0.0,89,0.07,,,-99.99,WeatherLink 5.7,2013-02-11 14:11:00,
2013-02-11 09:20:00,33.4,30.2,29.99,North,-999,0.0,0.0,88,0.05,,,-99.99,WeatherLink 5.7,2013-02-11 14:20:00,
2013-02-11 09:21:00,33.4,30.2,29.99,North,-999,0.0,0.0,88,0.05,,,-99.99,WeatherLink 5.7,2013-02-11 14:21:00,
2013-02-11 09:30:00,33.4,30.2,29.98,North,-999,0.0,0.0,88,0.05,,,-99.99,WeatherLink 5.7,2013-02-11 14:30:00,
2013-02-11 09:31:00,33.4,30.2,29.98,North,-999,0.0,0.0,88,0.05,,,-99.99,WeatherLink 5.7,2013-02-11 14:31:00,
2013-02-11 09:40:00,33.3,30.1,29.98,North,-999,0.0,0.0,88,0.04,,,-99.99,WeatherLink 5.7,2013-02-11 14:40:00,
2013-02-11 09:41:00,33.3,30.1,29.98,North,-999,0.0,0.0,88,0.04,,,-99.99,WeatherLink 5.7,2013-02-11 14:41:00,
2013-02-11 09:50:00,33.3,30.1,29.97,North,-999,0.0,0.0,88,0.03,,,-99.99,WeatherLink 5.7,2013-02-11 14:50:00,
2013-02-11 09:51:00,33.3,30.1,29.97,North,-999,0.0,0.0,88,0.03,,,-99.99,WeatherLink 5.7,2013-02-11 14:51:00,
2013-02-11 10:00:00,33.4,30.5,29.97,North,-999,0.0,0.0,89,0.02,,,-99.99,WeatherLink 5.7,2013-02-11 15:00:00,
2013-02-11 10:01:00,33.4,30.5,29.97,North,-999,0.0,0.0,89,0.02,,,-99.99,WeatherLink 5.7,2013-02-11 15:01:00,
2013-02-11 10:10:00,33.5,30.3,29.96,North,-999,0.0,0.0,88,0.01,,,-99.99,WeatherLink 5.7,2013-02-11 15:10:00,
2013-02-11 10:11:00,33.5,30.3,29.96,North,-999,0.0,0.0,88,0.01,,,-99.99,WeatherLink 5.7,2013-02-11 15:11:00,
2013-02-11 10:20:00,33.5,30.3,29.94,North,-999,0.0,1.0,88,0.01,,,-99.99,WeatherLink 5.7,2013-02-11 15:20:00,
2013-02-11 10:21:00,33.5,30.3,29.94,North,-999,0.0,1.0,88,0.01,,,-99.99,WeatherLink 5.7,2013-02-11 15:21:00,
2013-02-11 10:30:00,33.6,30.7,29.95,SE,135,0.0,1.0,89,0.01,,,-99.99,WeatherLink 5.7,2013-02-11 15:30:00,
2013-02-11 10:31:00,33.6,30.7,29.95,SE,135,0.0,1.0,89,0.01,,,-99.99,WeatherLink 5.7,2013-02-11 15:31:00,
2013-02-11 10:40:00,33.8,30.6,29.95,North,-999,0.0,0.0,88,0.01,,,-99.99,WeatherLink 5.7,2013-02-11 15:40:00,
2013-02-11 10:41:00,33.8,30.6,29.95,North,-999,0.0,0.0,88,0.01,,,-99.99,WeatherLink 5.7,2013-02-11 15:41:00,
2013-02-11 10:50:00,33.8,30.9,29.95,SE,135,0.0,1.0,89,0.01,,,-99.99,WeatherLink 5.7,2013-02-11 15:50:00,
2013-02-11 10:51:00,33.8,30.9,29.95,SE,135,0.0,1.0,89,0.01,,,-99.99,WeatherLink 5.7,2013-02-11 15:51:00,
2013-02-11 11:00:00,33.7,30.8,29.94,SE,135,0.0,2.0,89,0.01,,,-99.99,WeatherLink 5.7,2013-02-11 16:00:00,
2013-02-11 11:01:00,33.7,30.8,29.94,SE,135,0.0,2.0,89,0.01,,,-99.99,WeatherLink 5.7,2013-02-11 16:01:00,
2013-02-11 11:10:00,33.6,30.7,29.93,SE,135,0.0,2.0,89,0.01,,,-99.99,WeatherLink 5.7,2013-02-11 16:10:00,
2013-02-11 11:11:00,33.6,30.7,29.93,SE,135,0.0,2.0,89,0.01,,,-99.99,WeatherLink 5.7,2013-02-11 16:11:00,
2013-02-11 11:20:00,33.8,30.9,29.92,SE,135,0.0,1.0,89,0.01,,,-99.99,WeatherLink 5.7,2013-02-11 16:20:00,
2013-02-11 11:21:00,33.8,30.9,29.92,SE,135,0.0,1.0,89,0.01,,,-99.99,WeatherLink 5.7,2013-02-11 16:21:00,
2013-02-11 11:30:00,34.0,31.1,29.91,SE,135,0.0,2.0,89,0.00,,,-99.99,WeatherLink 5.7,2013-02-11 16:30:00,
2013-02-11 11:31:00,34.0,31.1,29.91,SE,135,0.0,2.0,89,0.00,,,-99.99,WeatherLink 5.7,2013-02-11 16:31:00,
2013-02-11 11:40:00,34.3,31.4,29.91,SE,135,0.0,2.0,89,0.00,,,-99.99,WeatherLink 5.7,2013-02-11 16:40:00,
2013-02-11 11:41:00,34.3,31.4,29.91,SE,135,0.0,2.0,89,0.00,,,-99.99,WeatherLink 5.7,2013-02-11 16:41:00,
2013-02-11 11:50:00,34.7,31.8,29.90,SE,135,0.0,2.0,89,0.01,,,-99.99,WeatherLink 5.7,2013-02-11 16:50:00,
2013-02-11 11:51:00,34.7,31.8,29.90,SE,135,0.0,2.0,89,0.01,,,-99.99,WeatherLink 5.7,2013-02-11 16:51:00,
2013-02-11 12:00:00,35.2,32.6,29.89,NNE,22,0.0,5.0,90,0.01,,,-99.99,WeatherLink 5.7,2013-02-11 17:00:00,
2013-02-11 12:10:00,36.1,33.7,29.87,East,90,0.0,4.0,91,0.01,,,-99.99,WeatherLink 5.7,2013-02-11 17:10:00,
2013-02-11 12:11:00,36.1,33.7,29.87,East,90,0.0,4.0,91,0.01,,,-99.99,WeatherLink 5.7,2013-02-11 17:11:00,
2013-02-11 12:20:00,37.5,35.1,29.86,ENE,67,0.0,3.0,91,0.01,,,-99.99,WeatherLink 5.7,2013-02-11 17:20:00,
2013-02-11 12:21:00,37.5,35.1,29.86,ENE,67,0.0,3.0,91,0.01,,,-99.99,WeatherLink 5.7,2013-02-11 17:21:00,
2013-02-11 12:30:00,38.5,36.1,29.85,SSW,202,0.0,6.0,91,0.01,,,-99.99,WeatherLink 5.7,2013-02-11 17:30:00,
2013-02-11 12:40:00,39.1,36.7,29.84,North,0,1.0,5.0,91,0.01,,,-99.99,WeatherLink 5.7,2013-02-11 17:40:00,
2013-02-11 12:41:00,39.1,36.7,29.84,North,0,1.0,5.0,91,0.01,,,-99.99,WeatherLink 5.7,2013-02-11 17:41:00,
2013-02-11 12:50:00,39.3,36.9,29.83,NE,45,1.0,4.0,91,0.00,,,-99.99,WeatherLink 5.7,2013-02-11 17:50:00,
2013-02-11 12:51:00,39.3,36.9,29.83,NE,45,1.0,4.0,91,0.00,,,-99.99,WeatherLink 5.7,2013-02-11 17:51:00,
2013-02-11 13:00:00,39.2,36.8,29.83,North,0,1.0,3.0,91,0.00,,,-99.99,WeatherLink 5.7,2013-02-11 18:00:00,
2013-02-11 13:01:00,39.2,36.8,29.83,North,0,1.0,3.0,91,0.00,,,-99.99,WeatherLink 5.7,2013-02-11 18:01:00,
2013-02-11 13:10:00,39.2,36.8,29.82,East,90,0.0,2.0,91,0.00,,,-99.99,WeatherLink 5.7,2013-02-11 18:10:00,
2013-02-11 13:11:00,39.2,36.8,29.82,East,90,0.0,2.0,91,0.00,,,-99.99,WeatherLink 5.7,2013-02-11 18:11:00,
2013-02-11 13:20:00,38.9,36.5,29.81,SW,225,0.0,3.0,91,0.00,,,-99.99,WeatherLink 5.7,2013-02-11 18:20:00,
2013-02-11 13:21:00,38.9,36.5,29.81,SW,225,0.0,3.0,91,0.00,,,-99.99,WeatherLink 5.7,2013-02-11 18:21:00,
2013-02-11 13:30:00,38.9,36.5,29.80,ESE,112,0.0,2.0,91,0.00,,,-99.99,WeatherLink 5.7,2013-02-11 18:30:00,
2013-02-11 13:31:00,38.9,36.5,29.80,ESE,112,0.0,2.0,91,0.00,,,-99.99,WeatherLink 5.7,2013-02-11 18:31:00,
2013-02-11 13:41:00,38.8,36.4,29.80,ESE,112,0.0,4.0,91,0.00,,,-99.99,WeatherLink 5.7,2013-02-11 18:41:00,
2013-02-11 13:51:00,38.8,36.4,29.80,North,0,0.0,3.0,91,0.00,,,-99.99,WeatherLink 5.7,2013-02-11 18:51:00,
2013-02-11 14:01:00,38.6,35.9,29.80,SSE,157,0.0,3.0,90,0.00,,,-99.99,WeatherLink 5.7,2013-02-11 19:01:00,
2013-02-11 14:11:00,38.4,36.0,29.79,North,0,0.0,2.0,91,0.00,,,-99.99,WeatherLink 5.7,2013-02-11 19:11:00,
2013-02-11 14:21:00,38.5,36.1,29.78,North,0,0.0,1.0,91,0.00,,,-99.99,WeatherLink 5.7,2013-02-11 19:21:00,
2013-02-11 14:31:00,38.4,36.0,29.77,North,0,0.0,2.0,91,0.00,,,-99.99,WeatherLink 5.7,2013-02-11 19:31:00,
2013-02-11 14:41:00,38.7,36.3,29.76,NE,45,0.0,2.0,91,0.00,,,-99.99,WeatherLink 5.7,2013-02-11 19:41:00,
2013-02-11 14:51:00,39.0,36.6,29.76,NE,45,0.0,2.0,91,0.00,,,-99.99,WeatherLink 5.7,2013-02-11 19:51:00,
2013-02-11 15:00:00,38.8,36.4,29.76,NE,45,0.0,3.0,91,0.00,,,-99.99,WeatherLink 5.7,2013-02-11 20:00:00,
2013-02-11 15:10:00,38.6,36.2,29.75,North,-999,0.0,1.0,91,0.00,,,-99.99,WeatherLink 5.7,2013-02-11 20:10:00,
2013-02-11 15:20:00,38.6,36.2,29.74,WNW,292,0.0,4.0,91,0.00,,,-99.99,WeatherLink 5.7,2013-02-11 20:20:00,
2013-02-11 15:31:00,38.6,36.2,29.74,North,-999,0.0,0.0,91,0.00,,,-99.99,WeatherLink 5.7,2013-02-11 20:31:00,
2013-02-11 15:40:00,38.5,36.1,29.73,West,270,0.0,2.0,91,0.00,,,-99.99,WeatherLink 5.7,2013-02-11 20:40:00,
2013-02-11 15:50:00,38.3,35.9,29.73,North,-999,0.0,1.0,91,0.00,,,-99.99,WeatherLink 5.7,2013-02-11 20:50:00,
2013-02-11 16:00:00,38.0,35.6,29.73,West,270,0.0,2.0,91,0.00,,,-99.99,WeatherLink 5.7,2013-02-11 21:00:00,
2013-02-11 16:11:00,37.5,35.1,29.72,North,-999,0.0,0.0,91,0.00,,,-99.99,WeatherLink 5.7,2013-02-11 21:11:00,
2013-02-11 16:27:00,37.4,35.0,29.71,North,-999,0.0,0.0,91,0.00,,,-99.99,WeatherLink 5.7,2013-02-11 21:27:00,
2013-02-11 16:40:00,37.4,35.3,29.70,West,270,0.0,2.0,92,0.00,,,-99.99,WeatherLink 5.7,2013-02-11 21:40:00,
2013-02-11 16:50:00,37.3,35.2,29.71,West,270,0.0,2.0,92,0.00,,,-99.99,WeatherLink 5.7,2013-02-11 21:50:00,
2013-02-11 17:00:00,37.0,34.9,29.69,West,270,0.0,1.0,92,0.00,,,-99.99,WeatherLink 5.7,2013-02-11 22:00:00,
2013-02-11 17:11:00,36.8,34.7,29.69,ENE,67,0.0,2.0,92,0.00,,,-99.99,WeatherLink 5.7,2013-02-11 22:11:00,
2013-02-11 17:21:00,36.9,34.8,29.69,ENE,67,0.0,2.0,92,0.00,,,-99.99,WeatherLink 5.7,2013-02-11 22:21:00,
2013-02-11 17:31:00,36.7,34.6,29.69,North,-999,0.0,1.0,92,0.00,,,-99.99,WeatherLink 5.7,2013-02-11 22:31:00,
2013-02-11 17:41:00,36.8,35.0,29.69,ENE,67,0.0,2.0,93,0.00,,,-99.99,WeatherLink 5.7,2013-02-11 22:41:00,
2013-02-11 17:51:00,36.9,34.8,29.69,NW,315,1.0,3.0,92,0.00,,,-99.99,WeatherLink 5.7,2013-02-11 22:51:00,
2013-02-11 18:01:00,36.5,34.7,29.68,NW,315,0.0,2.0,93,0.00,,,-99.99,WeatherLink 5.7,2013-02-11 23:01:00,
2013-02-11 18:11:00,36.7,34.9,29.68,WNW,292,1.0,3.0,93,0.00,,,-99.99,WeatherLink 5.7,2013-02-11 23:11:00,
2013-02-11 18:21:00,36.9,35.1,29.68,WNW,292,1.0,3.0,93,0.00,,,-99.99,WeatherLink 5.7,2013-02-11 23:21:00,
2013-02-11 18:31:00,36.7,34.9,29.67,NW,315,1.0,3.0,93,0.00,,,-99.99,WeatherLink 5.7,2013-02-11 23:31:00,
2013-02-11 18:41:00,36.6,34.8,29.67,North,0,0.0,2.0,93,0.00,,,-99.99,WeatherLink 5.7,2013-02-11 23:41:00,
2013-02-11 18:51:00,37.1,35.8,29.67,North,0,0.0,2.0,95,0.00,,,-99.99,WeatherLink 5.7,2013-02-11 23:51:00,
2013-02-11 19:01:00,37.4,36.6,29.66,North,0,0.0,2.0,97,0.00,,,-99.99,WeatherLink 5.7,2013-02-12 00:01:00,
2013-02-11 19:11:00,37.1,36.3,29.66,North,0,0.0,1.0,97,0.00,,,-99.99,WeatherLink 5.7,2013-02-12 00:11:00,
2013-02-11 19:21:00,37.0,36.7,29.66,North,0,0.0,1.0,99,0.00,,,-99.99,WeatherLink 5.7,2013-02-12 00:21:00,
2013-02-11 19:31:00,37.3,37.3,29.66,North,0,0.0,1.0,100,0.00,,,-99.99,WeatherLink 5.7,2013-02-12 00:31:00,
2013-02-11 19:41:00,37.7,37.7,29.66,NNW,337,1.0,4.0,100,0.00,,,-99.99,WeatherLink 5.7,2013-02-12 00:41:00,
2013-02-11 19:51:00,37.4,37.4,29.66,NW,315,0.0,2.0,100,0.00,,,-99.99,WeatherLink 5.7,2013-02-12 00:51:00,
2013-02-11 20:01:00,37.2,37.2,29.66,NW,315,0.0,2.0,100,0.00,,,-99.99,WeatherLink 5.7,2013-02-12 01:01:00,
2013-02-11 20:11:00,37.1,37.1,29.67,North,0,0.0,1.0,100,0.00,,,-99.99,WeatherLink 5.7,2013-02-12 01:11:00,
2013-02-11 20:21:00,37.2,37.2,29.66,North,0,0.0,1.0,100,0.00,,,-99.99,WeatherLink 5.7,2013-02-12 01:21:00,
2013-02-11 20:31:00,37.6,37.6,29.66,NNE,22,0.0,2.0,100,0.00,,,-99.99,WeatherLink 5.7,2013-02-12 01:31:00,
2013-02-11 20:41:00,37.9,37.9,29.67,NE,45,0.0,2.0,100,0.00,,,-99.99,WeatherLink 5.7,2013-02-12 01:41:00,
2013-02-11 20:51:00,38.0,38.0,29.66,NE,45,0.0,3.0,100,0.00,,,-99.99,WeatherLink 5.7,2013-02-12 01:51:00,
2013-02-11 21:01:00,38.2,38.2,29.66,WSW,247,0.0,1.0,100,0.00,,,-99.99,WeatherLink 5.7,2013-02-12 02:01:00,
2013-02-11 21:11:00,38.0,38.0,29.68,NW,315,1.0,4.0,100,0.00,,,-99.99,WeatherLink 5.7,2013-02-12 02:11:00,
2013-02-11 21:21:00,37.8,37.8,29.69,NW,315,1.0,4.0,100,0.00,,,-99.99,WeatherLink 5.7,2013-02-12 02:21:00,
2013-02-11 21:31:00,37.8,37.8,29.69,NNW,337,2.0,5.0,100,0.00,,,-99.99,WeatherLink 5.7,2013-02-12 02:31:00,
2013-02-11 21:41:00,38.1,38.1,29.69,NW,315,2.0,4.0,100,0.00,,,-99.99,WeatherLink 5.7,2013-02-12 02:41:00,
2013-02-11 21:51:00,37.9,37.9,29.70,NW,315,1.0,3.0,100,0.00,,,-99.99,WeatherLink 5.7,2013-02-12 02:51:00,
2013-02-11 22:01:00,37.7,37.7,29.70,NW,315,2.0,4.0,100,0.00,,,-99.99,WeatherLink 5.7,2013-02-12 03:01:00,
2013-02-11 22:11:00,37.6,37.6,29.71,NW,315,1.0,3.0,100,0.00,,,-99.99,WeatherLink 5.7,2013-02-12 03:11:00,
2013-02-11 22:21:00,37.5,37.5,29.71,NW,315,2.0,6.0,100,0.00,,,-99.99,WeatherLink 5.7,2013-02-12 03:21:00,
2013-02-11 22:31:00,37.8,37.8,29.72,NW,315,2.0,5.0,100,0.00,,,-99.99,WeatherLink 5.7,2013-02-12 03:31:00,
2013-02-11 22:41:00,37.7,37.7,29.71,NW,315,1.0,4.0,100,0.00,,,-99.99,WeatherLink 5.7,2013-02-12 03:41:00,
2013-02-11 22:51:00,37.5,37.5,29.71,NW,315,1.0,4.0,100,0.00,,,-99.99,WeatherLink 5.7,2013-02-12 03:51:00,
2013-02-11 23:01:00,37.2,37.2,29.72,WSW,247,1.0,4.0,100,0.00,,,-99.99,WeatherLink 5.7,2013-02-12 04:01:00,
2013-02-11 23:11:00,37.0,37.0,29.71,NW,315,1.0,2.0,100,0.00,,,-99.99,WeatherLink 5.7,2013-02-12 04:11:00,
2013-02-11 23:21:00,36.6,36.6,29.71,NW,315,1.0,3.0,100,0.00,,,-99.99,WeatherLink 5.7,2013-02-12 04:21:00,
2013-02-11 23:31:00,36.4,36.4,29.71,NNW,337,0.0,3.0,100,0.00,,,-99.99,WeatherLink 5.7,2013-02-12 04:31:00,
2013-02-11 23:41:00,36.1,36.1,29.72,NNW,337,0.0,1.0,100,0.00,,,-99.99,WeatherLink 5.7,2013-02-12 04:41:00,
2013-02-11 23:51:00,36.0,36.0,29.72,NNW,337,0.0,1.0,100,0.00,,,-99.99,WeatherLink 5.7,2013-02-12 04:51:00,